Tuesday, August 14, 2018, 11:49 PM CDT
Back to Local

KC09, Morris, Morris Municipal-james R Washburn Field Airport

Location: Morris, IL, United States Lat: 41.425
Local Time: 11:49 PM CDT ( 4:49 GMT) Lon: -88.419
Time Zone: US/Central Elev: 583 ft

Show me the last for .
Show Decoded

2018-08-14 23:35 METAR KC09 150435Z AUTO 00000KT 10SM CLR 21/19 A2995 RMK AO2 T02050188 =
2018-08-14 23:15 METAR KC09 150415Z AUTO 00000KT 10SM CLR 21/19 A2995 RMK AO2 T02130186 =
2018-08-14 22:55 METAR KC09 150355Z AUTO 13003KT 10SM CLR 21/19 A2995 RMK AO2 T02120185 =
2018-08-14 22:35 METAR KC09 150335Z AUTO 15004KT 10SM CLR 22/19 A2995 RMK AO2 T02150185 =
2018-08-14 22:15 METAR KC09 150315Z AUTO 17004KT 10SM CLR 22/19 A2996 RMK AO2 T02150185 =
2018-08-14 21:55 METAR KC09 150255Z AUTO 17003KT 10SM CLR 22/18 A2996 RMK AO2 T02210182 =
2018-08-14 21:35 METAR KC09 150235Z AUTO 16004KT 10SM CLR 23/18 A2996 RMK AO2 T02250181 =
2018-08-14 21:15 METAR KC09 150215Z AUTO 16004KT 10SM CLR 23/18 A2995 RMK AO2 T02260180 =
2018-08-14 20:55 METAR KC09 150155Z AUTO 17004KT 10SM CLR 23/18 A2995 RMK AO2 T02300178 =
2018-08-14 20:35 METAR KC09 150135Z AUTO 17003KT 10SM CLR 23/18 A2994 RMK AO2 T02300176 =
2018-08-14 20:15 METAR KC09 150115Z AUTO 18003KT 10SM CLR 23/18 A2994 RMK AO2 T02320177 =
2018-08-14 19:55 METAR KC09 150055Z AUTO 00000KT 10SM CLR 23/18 A2994 RMK AO2 T02340184 =
2018-08-14 19:35 METAR KC09 150035Z AUTO 00000KT 10SM CLR 25/18 A2994 RMK AO2 T02470184 =
2018-08-14 19:15 METAR KC09 150015Z AUTO 00000KT 10SM CLR 26/19 A2994 RMK AO2 LTG DSNT SW
                 T02560190 =
2018-08-14 18:55 METAR KC09 142355Z AUTO 00000KT 10SM CLR 27/19 A2994 RMK AO2 T02670192 10307
                 20266 =
2018-08-14 18:35 METAR KC09 142335Z AUTO 00000KT 10SM CLR 28/19 A2994 RMK AO2 T02790189 =
2018-08-14 18:15 METAR KC09 142315Z AUTO 00000KT 10SM CLR 29/18 A2994 RMK AO2 T02930181 =
2018-08-14 17:55 METAR KC09 142255Z AUTO 29003KT 10SM CLR 29/18 A2995 RMK AO2 T02920176 =
2018-08-14 17:35 METAR KC09 142235Z AUTO 28003KT 10SM CLR 30/17 A2995 RMK AO2 T02950169 =
2018-08-14 17:15 METAR KC09 142215Z AUTO 00000KT 10SM CLR 30/16 A2995 RMK AO2 T02980161 =
2018-08-14 16:55 METAR KC09 142155Z AUTO 00000KT 10SM CLR 30/16 A2995 RMK AO2 T03010164 =
2018-08-14 16:35 METAR KC09 142135Z AUTO 23005KT 10SM SCT060 30/17 A2995 RMK AO2 T03000165 =
2018-08-14 16:15 METAR KC09 142115Z AUTO 24005KT 10SM SCT060 30/17 A2995 RMK AO2 T03030169 =
2018-08-14 15:55 METAR KC09 142055Z AUTO 23006KT 10SM CLR 30/17 A2995 RMK AO2 T03030174 =
2018-08-14 15:35 METAR KC09 142035Z AUTO 22004KT 10SM SCT055 30/17 A2996 RMK AO2 T03010166 =
2018-08-14 15:15 METAR KC09 142015Z AUTO 00000KT 10SM SCT055 30/17 A2996 RMK AO2 T03010173 =
2018-08-14 14:55 METAR KC09 141955Z AUTO 23004KT 10SM BKN055 30/17 A2997 RMK AO2 T03010171 =
2018-08-14 14:35 METAR KC09 141935Z AUTO 29003KT 10SM SCT055 30/17 A2997 RMK AO2 T02980169 =
2018-08-14 14:15 METAR KC09 141915Z AUTO 30003KT 10SM SCT060 30/17 A2998 RMK AO2 T02980167 =
2018-08-14 13:55 METAR KC09 141855Z AUTO 25006KT 10SM SCT060 30/16 A2998 RMK AO2 T03010161 =
2018-08-14 13:35 METAR KC09 141835Z AUTO 20003KT 10SM SCT050 BKN060 30/18 A2999 RMK AO2 T03020179
                 =
2018-08-14 13:15 METAR KC09 141815Z AUTO 00000KT 10SM BKN050 BKN060 29/17 A3000 RMK AO2 T02900166
                 =
2018-08-14 12:55 METAR KC09 141755Z AUTO 20004KT 10SM BKN050 29/18 A3000 RMK AO2 T02930177 10295
                 20170 =
2018-08-14 12:35 METAR KC09 141735Z AUTO 23005KT 10SM SCT050 29/18 A3000 RMK AO2 T02920176 =
2018-08-14 12:15 METAR KC09 141715Z AUTO 28003KT 10SM SCT060 28/18 A3000 RMK AO2 T02820181 =
2018-08-14 11:55 METAR KC09 141655Z AUTO 00000KT 10SM CLR 29/18 A3000 RMK AO2 T02870180 =
2018-08-14 11:35 METAR KC09 141635Z AUTO 25004KT 10SM CLR 28/19 A3000 RMK AO2 T02830189 =
2018-08-14 11:15 METAR KC09 141615Z AUTO 26004KT 10SM CLR 28/19 A3001 RMK AO2 T02790188 =
2018-08-14 10:55 METAR KC09 141555Z AUTO 23004KT 10SM CLR 28/19 A3001 RMK AO2 T02780194 =
2018-08-14 10:35 METAR KC09 141535Z AUTO 22005KT 10SM CLR 27/20 A3001 RMK AO2 T02730195 =
2018-08-14 10:15 METAR KC09 141515Z AUTO 25005KT 10SM CLR 27/20 A3001 RMK AO2 T02680197 =
2018-08-14 09:55 METAR KC09 141455Z AUTO 26003KT 10SM CLR 26/20 A3001 RMK AO2 T02610196 =
2018-08-14 09:35 METAR KC09 141435Z AUTO 27005KT 10SM CLR 25/19 A3001 RMK AO2 T02500193 =
2018-08-14 09:15 METAR KC09 141415Z AUTO 26003KT 10SM CLR 24/19 A3001 RMK AO2 T02400194 =
2018-08-14 08:55 METAR KC09 141355Z AUTO 25004KT 10SM CLR 23/19 A3001 RMK AO2 T02300190 =
2018-08-14 08:35 METAR KC09 141335Z AUTO 26004KT 10SM CLR 22/19 A3002 RMK AO2 T02150187 =
2018-08-14 08:15 METAR KC09 141315Z AUTO 00000KT 7SM CLR 20/19 A3001 RMK AO2 T02040186 =
2018-08-14 07:55 METAR KC09 141255Z AUTO 23003KT 7SM CLR 20/19 A3001 RMK AO2 T01950185 =
2018-08-14 07:35 METAR KC09 141235Z AUTO 00000KT 7SM CLR 19/18 A3001 RMK AO2 T01880176 =
2018-08-14 07:15 METAR KC09 141215Z AUTO 00000KT 5SM BR CLR 18/17 A3001 RMK AO2 T01790167 =
2018-08-14 06:55 METAR KC09 141155Z AUTO 00000KT 7SM CLR 17/16 A3000 RMK AO2 T01710163 10180
                 20155 =
2018-08-14 06:35 METAR KC09 141135Z AUTO 00000KT 4SM BR CLR 16/16 A3000 RMK AO2 T01620155 =
2018-08-14 06:15 METAR KC09 141115Z AUTO 00000KT 7SM CLR 16/15 A3001 RMK AO2 T01570150 =
2018-08-14 05:55 METAR KC09 141055Z AUTO 00000KT 10SM CLR 16/15 A3001 RMK AO2 T01600152 =
2018-08-14 05:35 METAR KC09 141035Z AUTO 00000KT 7SM CLR 16/15 A3000 RMK AO2 T01560149 =
2018-08-14 05:15 METAR KC09 141015Z AUTO 00000KT 10SM CLR 16/16 A3000 RMK AO2 T01640155 =
2018-08-14 04:55 METAR KC09 140955Z AUTO 28003KT 10SM CLR 18/16 A2999 RMK AO2 T01790162 =
2018-08-14 04:35 METAR KC09 140935Z AUTO 27003KT 10SM CLR 17/16 A3000 RMK AO2 T01720160 =
2018-08-14 04:15 METAR KC09 140915Z AUTO 28004KT 10SM CLR 17/16 A2999 RMK AO2 T01700158 =
2018-08-14 03:55 METAR KC09 140855Z AUTO 30005KT 10SM CLR 17/16 A2999 RMK AO2 T01680158 =
2018-08-14 03:35 METAR KC09 140835Z AUTO 30005KT 7SM CLR 17/16 A3000 RMK AO2 T01700160 =
2018-08-14 03:15 METAR KC09 140815Z AUTO 28005KT 7SM CLR 16/16 A3000 RMK AO2 T01630156 =
2018-08-14 02:55 METAR KC09 140755Z AUTO 27003KT 7SM CLR 17/16 A3000 RMK AO2 T01680161 =
2018-08-14 02:35 METAR KC09 140735Z AUTO 29004KT 7SM CLR 16/16 A3000 RMK AO2 T01640156 =
2018-08-14 02:15 METAR KC09 140715Z AUTO 00000KT 10SM CLR 17/16 A3000 RMK AO2 T01720161 =
2018-08-14 01:55 METAR KC09 140655Z AUTO 28004KT 10SM CLR 18/16 A3000 RMK AO2 T01750164 =
2018-08-14 01:35 METAR KC09 140635Z AUTO 00000KT 10SM CLR 17/16 A3001 RMK AO2 T01710164 =
2018-08-14 01:15 METAR KC09 140615Z AUTO 00000KT 10SM CLR 18/17 A3001 RMK AO2 T01750166 =
2018-08-14 00:55 METAR KC09 140555Z AUTO 00000KT 10SM CLR 18/17 A3001 RMK AO2 T01760168 10278
                 20176 403080141 =
2018-08-14 00:35 METAR KC09 140535Z AUTO 00000KT 10SM CLR 18/17 A3001 RMK AO2 T01790170 =
2018-08-14 00:15 METAR KC09 140515Z AUTO 00000KT 10SM CLR 18/17 A3001 RMK AO2 T01810172 =
2018-08-13 23:55 METAR KC09 140455Z AUTO 09003KT 10SM CLR 19/18 A3001 RMK AO2 T01920176 =

Support USWX by starting your Amazon purchase here.